Time;durP1;ratioP1;P1;durP2;ratioP2;P2;SDS_P1;SDS_P2;PMS_P1;PMS_P2;Temp;Humidity;BMP_temperature;BMP_pressure;BME280_temperature;BME280_humidity;BME280_pressure;Samples;Min_cycle;Max_cycle;Signal;HPM_P1;HPM_P2
2021/09/18 00:01:25;;;;;;;32.60;26.60;;;15.60;99.90;;;;;;5081137;28;20196;-39
2021/09/18 00:03:51;;;;;;;29.70;26.50;;;15.60;99.90;;;;;;5079192;28;20234;-38
2021/09/18 00:06:17;;;;;;;29.03;24.80;;;15.60;99.90;;;;;;5085572;28;20184;-39
2021/09/18 00:08:42;;;;;;;30.80;26.27;;;15.60;99.90;;;;;;5085030;28;20207;-40
2021/09/18 00:11:09;;;;;;;30.03;26.70;;;15.70;99.90;;;;;;5084993;28;20224;-38
2021/09/18 00:13:35;;;;;;;27.87;24.97;;;15.70;99.90;;;;;;5085109;28;20176;-39
2021/09/18 00:16:01;;;;;;;28.23;24.70;;;15.70;99.90;;;;;;5085812;28;20567;-41
2021/09/18 00:18:26;;;;;;;27.07;24.27;;;15.70;99.90;;;;;;5072278;28;20184;-38
2021/09/18 00:20:52;;;;;;;29.53;25.57;;;15.70;99.90;;;;;;5084705;28;20599;-38
2021/09/18 00:23:18;;;;;;;30.50;27.20;;;15.70;99.90;;;;;;5084578;28;20184;-44
2021/09/18 00:25:44;;;;;;;30.00;25.17;;;15.70;99.90;;;;;;5085084;28;20419;-39
2021/09/18 00:28:10;;;;;;;32.70;27.77;;;15.70;99.90;;;;;;5085580;28;20433;-38
2021/09/18 00:30:36;;;;;;;30.30;26.40;;;15.60;99.90;;;;;;5084715;28;20262;-41
2021/09/18 00:33:02;;;;;;;30.03;26.97;;;15.60;99.90;;;;;;5074101;28;20180;-39
2021/09/18 00:35:28;;;;;;;28.00;25.00;;;15.60;99.90;;;;;;5085282;28;20550;-39
2021/09/18 00:37:54;;;;;;;29.20;26.20;;;15.60;99.90;;;;;;5085272;28;20444;-41
2021/09/18 00:40:20;;;;;;;34.83;27.07;;;15.60;99.90;;;;;;5083189;28;20184;-40
2021/09/18 00:42:45;;;;;;;31.23;27.00;;;15.60;99.90;;;;;;5085627;28;20269;-39
2021/09/18 00:45:11;;;;;;;27.90;24.93;;;15.60;99.90;;;;;;5085148;28;20211;-40
2021/09/18 00:47:37;;;;;;;31.70;28.40;;;15.60;99.90;;;;;;5078271;28;20185;-40
2021/09/18 00:50:04;;;;;;;32.73;29.33;;;15.60;99.90;;;;;;5088124;28;20513;-40
2021/09/18 00:52:29;;;;;;;31.07;27.77;;;15.60;99.90;;;;;;5083233;28;20219;-38
2021/09/18 00:54:56;;;;;;;30.37;26.60;;;15.70;99.90;;;;;;5088354;28;20419;-41
2021/09/18 00:57:22;;;;;;;33.13;29.60;;;15.60;99.90;;;;;;5088573;28;20187;-39
2021/09/18 00:59:48;;;;;;;31.80;27.90;;;15.70;99.90;;;;;;5087811;28;20426;-40
2021/09/18 01:02:14;;;;;;;31.13;27.70;;;15.70;99.90;;;;;;5081652;28;20942;-42
2021/09/18 01:04:40;;;;;;;34.60;29.37;;;15.70;99.90;;;;;;5085156;28;20425;-41
2021/09/18 01:07:07;;;;;;;32.00;28.53;;;15.70;99.90;;;;;;5088248;28;20234;-42
2021/09/18 01:09:32;;;;;;;31.87;27.63;;;15.70;99.90;;;;;;5087727;28;20473;-39
2021/09/18 01:11:59;;;;;;;35.70;29.27;;;15.70;99.90;;;;;;5088429;28;20489;-39
2021/09/18 01:14:25;;;;;;;35.23;28.27;;;15.70;99.90;;;;;;5088061;28;20430;-38
2021/09/18 01:16:51;;;;;;;33.40;28.30;;;15.80;99.90;;;;;;5085115;28;20603;-38
2021/09/18 01:19:18;;;;;;;33.93;28.27;;;15.80;99.90;;;;;;5072933;28;20545;-38
2021/09/18 01:21:48;;;;;;;31.13;27.13;;;15.80;99.90;;;;;;5087779;28;20415;-39
2021/09/18 01:24:14;;;;;;;31.30;27.57;;;15.80;99.90;;;;;;5087034;28;20471;-39
2021/09/18 01:26:40;;;;;;;33.60;29.33;;;15.80;99.90;;;;;;5087896;28;20960;-38
2021/09/18 01:29:06;;;;;;;30.60;26.73;;;15.80;99.90;;;;;;5087800;28;20425;-39
2021/09/18 01:31:44;;;;;;;33.30;28.73;;;15.90;99.90;;;;;;5087365;28;20625;-39
2021/09/18 01:34:09;;;;;;;30.43;27.20;;;15.90;99.90;;;;;;5076305;28;20419;-39
2021/09/18 01:36:36;;;;;;;33.20;26.43;;;15.90;99.90;;;;;;5087732;28;20419;-42
2021/09/18 01:39:10;;;;;;;31.90;27.20;;;16.00;99.90;;;;;;5087530;28;20185;-39
2021/09/18 01:41:36;;;;;;;29.70;26.60;;;15.80;99.90;;;;;;5087703;28;20790;-40
2021/09/18 01:44:03;;;;;;;29.57;26.17;;;15.80;99.90;;;;;;5087297;28;20487;-38
2021/09/18 01:46:29;;;;;;;31.87;28.03;;;15.80;99.90;;;;;;5087910;28;20193;-39
2021/09/18 01:48:55;;;;;;;32.33;27.87;;;15.70;99.90;;;;;;5074140;28;20441;-39
2021/09/18 01:51:21;;;;;;;32.57;26.90;;;15.60;99.90;;;;;;5083987;28;20283;-39
2021/09/18 01:53:46;;;;;;;37.93;30.90;;;15.60;99.90;;;;;;5087598;28;20722;-39
2021/09/18 01:56:12;;;;;;;34.53;27.87;;;15.60;99.90;;;;;;5087424;28;20708;-41
2021/09/18 01:58:38;;;;;;;34.93;29.53;;;15.50;99.90;;;;;;5086705;28;20603;-38
2021/09/18 02:01:04;;;;;;;33.73;29.87;;;15.50;99.90;;;;;;5085533;28;20183;-39
2021/09/18 02:03:31;;;;;;;36.83;31.80;;;15.60;99.90;;;;;;5079724;28;20652;-39
2021/09/18 02:05:57;;;;;;;37.87;31.87;;;15.60;99.90;;;;;;5086735;28;20426;-39
2021/09/18 02:08:23;;;;;;;33.80;29.10;;;15.60;99.90;;;;;;5086710;28;20464;-39
2021/09/18 02:10:50;;;;;;;35.10;28.10;;;15.60;99.90;;;;;;5086226;28;20450;-41
2021/09/18 02:13:16;;;;;;;38.37;30.50;;;15.60;99.90;;;;;;5086233;28;20454;-40
2021/09/18 02:15:42;;;;;;;32.93;28.53;;;15.60;99.90;;;;;;5087416;28;20410;-38
2021/09/18 02:18:09;;;;;;;34.33;28.53;;;15.50;99.90;;;;;;5077944;28;20945;-39
2021/09/18 02:20:35;;;;;;;34.90;29.70;;;15.50;99.90;;;;;;5082964;28;20430;-38
2021/09/18 02:23:01;;;;;;;36.33;30.73;;;15.50;99.90;;;;;;5084178;28;20422;-39
2021/09/18 02:25:28;;;;;;;36.00;29.80;;;15.50;99.90;;;;;;5086976;28;20423;-39
2021/09/18 02:27:54;;;;;;;39.87;32.30;;;15.50;99.90;;;;;;5086672;28;20494;-44
2021/09/18 02:30:25;;;;;;;40.20;33.90;;;15.50;99.90;;;;;;5086406;28;20798;-41
2021/09/18 02:32:51;;;;;;;43.17;36.03;;;15.50;99.90;;;;;;5082408;28;20428;-39
2021/09/18 02:35:19;;;;;;;44.00;36.10;;;15.40;99.90;;;;;;5080988;28;20788;-42
2021/09/18 02:37:46;;;;;;;44.23;35.57;;;15.50;99.90;;;;;;5086328;28;20415;-39
2021/09/18 02:40:15;;;;;;;44.80;35.23;;;15.50;99.90;;;;;;5085999;28;20426;-42
2021/09/18 02:42:45;;;;;;;44.80;36.90;;;15.50;99.90;;;;;;5087101;28;20494;-41
2021/09/18 02:45:11;;;;;;;40.73;33.70;;;15.60;99.90;;;;;;5086285;28;20417;-39
2021/09/18 02:47:37;;;;;;;44.40;35.10;;;15.60;99.90;;;;;;5083571;28;20726;-38
2021/09/18 02:50:04;;;;;;;42.23;34.60;;;15.60;99.90;;;;;;5080254;28;20771;-41
2021/09/18 02:52:30;;;;;;;41.47;31.87;;;15.50;99.90;;;;;;5086320;28;20212;-39
2021/09/18 02:54:55;;;;;;;39.50;33.70;;;15.50;99.90;;;;;;5085548;28;20963;-39
2021/09/18 02:57:21;;;;;;;41.80;33.70;;;15.50;99.90;;;;;;5086178;28;20669;-41
2021/09/18 02:59:47;;;;;;;40.10;34.27;;;15.40;99.90;;;;;;5085753;28;20242;-39
2021/09/18 03:02:12;;;;;;;40.63;33.63;;;15.40;99.90;;;;;;5086321;28;20189;-40
2021/09/18 03:04:38;;;;;;;44.83;35.70;;;15.40;99.90;;;;;;5080630;28;20196;-38
2021/09/18 03:07:05;;;;;;;42.23;35.10;;;15.40;99.90;;;;;;5085965;28;20702;-42
2021/09/18 03:09:30;;;;;;;39.13;32.77;;;15.30;99.90;;;;;;5084317;28;20211;-38
2021/09/18 03:11:56;;;;;;;40.70;34.27;;;15.20;99.90;;;;;;5084584;28;20467;-38
2021/09/18 03:14:22;;;;;;;43.30;35.17;;;15.20;99.90;;;;;;5064834;28;20423;-39
2021/09/18 03:16:48;;;;;;;37.00;32.13;;;15.20;99.90;;;;;;5072682;28;20184;-39
2021/09/18 03:19:13;;;;;;;43.50;34.80;;;15.10;99.90;;;;;;5077194;28;20180;-38
2021/09/18 03:21:39;;;;;;;43.63;34.30;;;15.20;99.90;;;;;;5085662;28;20421;-39
2021/09/18 03:24:06;;;;;;;39.87;33.23;;;15.10;99.90;;;;;;5084630;28;20189;-40
2021/09/18 03:26:32;;;;;;;43.10;32.93;;;15.20;99.90;;;;;;5085613;28;20449;-39
2021/09/18 03:28:58;;;;;;;38.80;31.97;;;15.20;99.90;;;;;;5084068;28;20433;-38
2021/09/18 03:31:23;;;;;;;42.17;32.20;;;15.20;99.90;;;;;;5085716;28;20451;-42
2021/09/18 03:33:49;;;;;;;36.70;29.97;;;15.10;99.90;;;;;;5075408;28;20216;-39
2021/09/18 03:36:15;;;;;;;39.90;30.77;;;15.20;99.90;;;;;;5085643;28;20212;-41
2021/09/18 03:38:40;;;;;;;38.60;30.50;;;15.20;99.90;;;;;;5083847;28;20369;-39
2021/09/18 03:41:06;;;;;;;35.40;31.60;;;15.10;99.90;;;;;;5085332;28;20192;-39
2021/09/18 03:43:32;;;;;;;35.53;30.47;;;15.10;99.90;;;;;;5085702;28;20831;-40
2021/09/18 03:45:58;;;;;;;34.53;29.70;;;15.20;99.90;;;;;;5085646;28;20437;-39
2021/09/18 03:48:24;;;;;;;38.90;28.70;;;15.20;99.90;;;;;;5079576;28;20189;-38
2021/09/18 03:50:49;;;;;;;33.47;29.37;;;15.10;99.90;;;;;;5078062;28;20638;-39
2021/09/18 03:53:15;;;;;;;36.50;30.43;;;15.00;99.90;;;;;;5083887;28;20264;-40
2021/09/18 03:55:41;;;;;;;41.10;29.63;;;14.80;99.90;;;;;;5085596;28;20544;-41
2021/09/18 03:58:06;;;;;;;39.13;31.23;;;14.80;99.90;;;;;;5085348;28;20895;-38
2021/09/18 04:00:32;;;;;;;39.77;30.30;;;14.70;99.90;;;;;;5084897;28;20180;-38
2021/09/18 04:02:58;;;;;;;40.80;32.40;;;14.70;99.90;;;;;;5083976;28;20423;-43
2021/09/18 04:05:23;;;;;;;36.13;30.83;;;14.70;99.90;;;;;;5075272;28;20655;-39
2021/09/18 04:07:49;;;;;;;40.23;32.33;;;14.60;99.90;;;;;;5085299;28;20197;-38
2021/09/18 04:10:15;;;;;;;39.83;32.30;;;14.70;99.90;;;;;;5083173;28;20575;-40
2021/09/18 04:12:40;;;;;;;38.23;32.90;;;14.70;99.90;;;;;;5085575;28;20269;-39
2021/09/18 04:15:06;;;;;;;41.27;34.40;;;14.70;99.90;;;;;;5085249;28;20529;-39
2021/09/18 04:17:32;;;;;;;41.20;33.37;;;14.80;99.90;;;;;;5085655;28;20183;-38
2021/09/18 04:19:58;;;;;;;40.57;33.03;;;14.80;99.90;;;;;;5077700;28;20422;-40
2021/09/18 04:22:23;;;;;;;46.23;34.60;;;14.80;99.90;;;;;;5087929;28;20519;-41
2021/09/18 04:24:49;;;;;;;37.03;31.03;;;14.80;99.90;;;;;;5088644;28;20595;-38
2021/09/18 04:27:15;;;;;;;40.50;32.93;;;14.70;99.90;;;;;;5089293;28;20202;-38
2021/09/18 04:29:40;;;;;;;42.33;33.33;;;14.60;99.90;;;;;;5088266;28;20254;-39
2021/09/18 04:32:06;;;;;;;40.87;32.90;;;14.60;99.90;;;;;;5089008;28;20585;-39
2021/09/18 04:34:32;;;;;;;41.47;32.97;;;14.60;99.90;;;;;;5078150;28;20213;-39
2021/09/18 04:36:58;;;;;;;36.80;31.10;;;14.70;99.90;;;;;;5088379;28;20473;-38
2021/09/18 04:39:24;;;;;;;40.10;32.23;;;14.70;99.90;;;;;;5088216;28;20215;-38
2021/09/18 04:41:50;;;;;;;39.60;31.20;;;14.70;99.90;;;;;;5087642;28;20447;-40
2021/09/18 04:44:16;;;;;;;42.37;33.40;;;14.60;99.90;;;;;;5088575;28;20462;-39
2021/09/18 04:46:41;;;;;;;40.43;31.77;;;14.60;99.90;;;;;;5089086;28;20866;-38
2021/09/18 04:49:09;;;;;;;38.83;31.00;;;14.70;99.90;;;;;;5081239;28;20189;-41
2021/09/18 04:51:36;;;;;;;39.10;30.80;;;14.60;99.90;;;;;;5084547;28;20249;-38
2021/09/18 04:54:02;;;;;;;39.83;32.43;;;14.50;99.90;;;;;;5088523;28;20928;-38
2021/09/18 04:56:27;;;;;;;36.90;31.20;;;14.50;99.90;;;;;;5087013;28;20414;-38
2021/09/18 04:58:53;;;;;;;40.80;32.67;;;14.60;99.90;;;;;;5088281;28;20423;-38
2021/09/18 05:01:19;;;;;;;39.07;32.27;;;14.50;99.90;;;;;;5088678;28;20188;-41
2021/09/18 05:03:44;;;;;;;40.00;32.27;;;14.50;99.90;;;;;;5085320;28;20615;-41
2021/09/18 05:06:10;;;;;;;35.10;29.60;;;14.40;99.90;;;;;;5081173;28;20635;-38
2021/09/18 05:08:36;;;;;;;36.40;31.10;;;14.40;99.90;;;;;;5086846;28;20223;-38
2021/09/18 05:11:01;;;;;;;32.90;28.63;;;14.30;99.90;;;;;;5082603;28;20208;-38
2021/09/18 05:13:27;;;;;;;38.50;29.30;;;14.20;99.90;;;;;;5086120;28;20699;-38
2021/09/18 05:15:53;;;;;;;35.50;29.57;;;14.20;99.90;;;;;;5088128;28;20193;-42
2021/09/18 05:18:18;;;;;;;37.87;31.23;;;14.20;99.90;;;;;;5087943;28;20548;-41
2021/09/18 05:20:44;;;;;;;35.73;29.40;;;14.20;99.90;;;;;;5072965;28;20195;-38
2021/09/18 05:23:10;;;;;;;35.87;29.73;;;14.20;99.90;;;;;;5084893;28;20185;-38
2021/09/18 05:25:35;;;;;;;36.33;29.63;;;14.30;99.90;;;;;;5079717;28;20184;-40
2021/09/18 05:28:01;;;;;;;38.60;29.87;;;14.20;99.90;;;;;;5084178;28;20184;-38
2021/09/18 05:30:27;;;;;;;36.33;28.80;;;14.20;99.90;;;;;;5084379;28;20236;-38
2021/09/18 05:32:52;;;;;;;37.07;31.03;;;14.20;99.90;;;;;;5086873;28;20274;-38
2021/09/18 05:35:18;;;;;;;38.87;30.47;;;14.20;99.90;;;;;;5079171;28;20181;-38
2021/09/18 05:37:43;;;;;;;35.50;30.10;;;14.20;99.90;;;;;;5088329;28;20233;-38
2021/09/18 05:40:10;;;;;;;36.37;30.33;;;14.10;99.90;;;;;;5088632;28;20181;-42
2021/09/18 05:42:37;;;;;;;36.70;31.27;;;14.20;99.90;;;;;;5087615;28;20184;-38
2021/09/18 05:45:04;;;;;;;32.43;27.87;;;14.20;99.90;;;;;;5089350;28;20414;-38
2021/09/18 05:47:30;;;;;;;37.60;30.53;;;14.20;99.90;;;;;;5089087;28;20434;-41
2021/09/18 05:49:56;;;;;;;38.40;30.30;;;14.20;99.90;;;;;;5079679;28;21185;-38
2021/09/18 05:52:21;;;;;;;37.40;30.07;;;14.30;99.90;;;;;;5086009;28;20834;-40
2021/09/18 05:54:47;;;;;;;39.00;30.87;;;14.30;99.90;;;;;;5087467;28;20191;-38
2021/09/18 05:57:13;;;;;;;34.53;29.50;;;14.30;99.90;;;;;;5081473;28;20188;-41
2021/09/18 05:59:39;;;;;;;36.37;29.47;;;14.30;99.90;;;;;;5085461;28;20281;-43
2021/09/18 06:02:04;;;;;;;38.63;30.00;;;14.40;99.90;;;;;;5087375;28;20192;-40
2021/09/18 06:04:30;;;;;;;39.77;30.30;;;14.40;99.90;;;;;;5080112;28;20242;-38
2021/09/18 06:06:56;;;;;;;37.03;30.17;;;14.50;99.90;;;;;;5077383;28;20267;-38
2021/09/18 06:09:21;;;;;;;37.90;31.17;;;14.50;99.90;;;;;;5086063;28;20295;-39
2021/09/18 06:11:47;;;;;;;39.20;30.53;;;14.50;99.90;;;;;;5087371;28;20231;-38
2021/09/18 06:14:13;;;;;;;40.37;31.20;;;14.50;99.90;;;;;;5087240;28;20188;-38
2021/09/18 06:16:38;;;;;;;41.27;33.63;;;14.60;99.90;;;;;;5087071;28;20630;-38
2021/09/18 06:19:04;;;;;;;41.50;32.80;;;14.60;99.90;;;;;;5082884;28;20192;-38
2021/09/18 06:21:30;;;;;;;38.60;30.63;;;14.60;99.90;;;;;;5082091;28;20188;-38
2021/09/18 06:23:55;;;;;;;40.50;30.70;;;14.70;99.90;;;;;;5082136;28;20267;-38
2021/09/18 06:26:21;;;;;;;37.93;31.27;;;14.70;99.90;;;;;;5086748;28;20184;-38
2021/09/18 06:28:47;;;;;;;42.97;35.07;;;14.70;99.90;;;;;;5086580;28;20196;-38
2021/09/18 06:31:12;;;;;;;43.27;35.17;;;14.70;99.90;;;;;;5085920;28;20196;-38
2021/09/18 06:33:38;;;;;;;38.97;32.07;;;14.80;99.90;;;;;;5086891;28;20195;-39
2021/09/18 06:36:04;;;;;;;41.43;31.40;;;14.90;99.90;;;;;;5080684;28;20349;-38
2021/09/18 06:38:30;;;;;;;41.83;33.77;;;14.90;99.90;;;;;;5077171;28;20188;-38
2021/09/18 06:40:56;;;;;;;45.53;35.13;;;15.00;99.90;;;;;;5080629;28;20276;-38
2021/09/18 06:43:23;;;;;;;44.50;37.00;;;15.00;99.90;;;;;;5086534;28;20185;-42
2021/09/18 06:45:50;;;;;;;45.10;35.37;;;15.00;99.90;;;;;;5086362;28;20429;-38
2021/09/18 06:48:16;;;;;;;51.77;37.43;;;15.00;99.90;;;;;;5086244;28;20651;-39
2021/09/18 06:50:42;;;;;;;45.23;35.50;;;15.10;99.90;;;;;;5076003;28;20459;-38
2021/09/18 06:53:09;;;;;;;50.60;37.03;;;15.20;99.90;;;;;;5086578;28;20211;-40
2021/09/18 06:55:36;;;;;;;57.03;40.93;;;15.20;99.90;;;;;;5086278;28;20414;-38
2021/09/18 06:58:02;;;;;;;54.97;42.10;;;15.30;99.90;;;;;;5086382;28;20445;-41
2021/09/18 07:00:28;;;;;;;59.83;43.93;;;15.30;99.90;;;;;;5085579;28;20429;-38
2021/09/18 07:02:54;;;;;;;60.87;43.70;;;15.40;99.90;;;;;;5086326;28;20423;-38
2021/09/18 07:05:20;;;;;;;60.33;46.97;;;15.40;99.90;;;;;;5077909;28;20500;-42
2021/09/18 07:07:46;;;;;;;63.00;48.17;;;15.50;99.90;;;;;;5084287;28;20263;-39
2021/09/18 07:10:13;;;;;;;59.10;47.47;;;15.60;99.90;;;;;;5083807;28;20848;-38
2021/09/18 07:12:39;;;;;;;64.47;48.40;;;15.70;99.90;;;;;;5085117;28;20564;-38
2021/09/18 07:15:07;;;;;;;62.87;48.10;;;15.70;99.90;;;;;;5078054;28;20472;-38
2021/09/18 07:17:33;;;;;;;64.00;49.93;;;15.80;99.90;;;;;;5082022;28;20418;-38
2021/09/18 07:19:59;;;;;;;62.07;48.30;;;15.80;99.90;;;;;;5080188;28;21023;-40
2021/09/18 07:22:25;;;;;;;60.70;47.90;;;15.90;99.90;;;;;;5079503;28;20188;-38
2021/09/18 07:24:51;;;;;;;65.17;50.67;;;16.00;99.90;;;;;;5085558;28;20433;-39
2021/09/18 07:27:18;;;;;;;66.37;51.70;;;16.10;99.90;;;;;;5085770;28;20431;-39
2021/09/18 07:29:47;;;;;;;66.37;50.00;;;16.20;99.90;;;;;;5084790;28;20429;-38
2021/09/18 07:32:13;;;;;;;65.70;52.17;;;16.30;99.90;;;;;;5084621;28;20462;-41
2021/09/18 07:34:39;;;;;;;63.40;50.43;;;16.40;99.90;;;;;;5081028;28;20433;-42
2021/09/18 07:37:05;;;;;;;69.50;52.87;;;16.40;99.90;;;;;;5068718;28;20211;-39
2021/09/18 07:39:31;;;;;;;85.57;59.57;;;16.50;99.90;;;;;;5073072;28;20426;-38
2021/09/18 07:41:58;;;;;;;75.70;57.93;;;16.60;99.90;;;;;;5084176;28;20249;-42
2021/09/18 07:44:24;;;;;;;69.97;53.20;;;16.70;99.90;;;;;;5085305;28;20414;-39
2021/09/18 07:46:50;;;;;;;77.00;55.57;;;16.70;99.90;;;;;;5085686;28;20495;-39
2021/09/18 07:49:17;;;;;;;70.23;53.93;;;16.80;99.90;;;;;;5085166;28;20418;-40
2021/09/18 07:51:43;;;;;;;74.73;58.07;;;16.90;99.90;;;;;;5071164;28;20217;-41
2021/09/18 07:54:09;;;;;;;74.77;55.40;;;17.00;99.90;;;;;;5085545;28;20819;-43
2021/09/18 07:56:35;;;;;;;68.00;52.67;;;17.10;99.90;;;;;;5089508;28;20446;-42
2021/09/18 07:59:01;;;;;;;64.83;51.60;;;17.20;99.90;;;;;;5088787;28;20188;-39
2021/09/18 08:01:27;;;;;;;69.83;50.70;;;17.30;99.90;;;;;;5089855;28;20426;-38
2021/09/18 08:03:58;;;;;;;63.33;49.37;;;17.40;99.90;;;;;;5089450;28;20503;-39
2021/09/18 08:06:25;;;;;;;64.63;51.10;;;17.50;99.90;;;;;;5077130;28;20469;-39
2021/09/18 08:08:52;;;;;;;56.10;45.00;;;17.50;99.90;;;;;;5088860;28;20444;-39
2021/09/18 08:11:19;;;;;;;51.93;43.40;;;17.60;99.90;;;;;;5089206;28;20866;-40
2021/09/18 08:13:46;;;;;;;47.13;37.73;;;17.70;99.90;;;;;;5089009;28;20441;-41
2021/09/18 08:16:12;;;;;;;58.63;47.43;;;17.70;99.90;;;;;;5089552;28;20422;-39
2021/09/18 08:18:37;;;;;;;65.13;50.97;;;17.80;99.90;;;;;;5089412;28;20421;-39
2021/09/18 08:21:04;;;;;;;63.47;49.23;;;17.80;99.90;;;;;;5081406;28;20185;-39
2021/09/18 08:23:30;;;;;;;80.83;57.47;;;17.90;99.90;;;;;;5083134;28;20559;-39
2021/09/18 08:25:56;;;;;;;75.50;56.47;;;17.90;99.90;;;;;;5088962;28;20430;-40
2021/09/18 08:28:21;;;;;;;71.57;56.77;;;17.90;99.90;;;;;;5089079;28;20422;-38
2021/09/18 08:30:47;;;;;;;75.70;58.10;;;18.00;99.90;;;;;;5088106;28;20390;-41
2021/09/18 08:33:13;;;;;;;73.43;54.70;;;18.00;99.90;;;;;;5089202;28;20192;-39
2021/09/18 08:35:38;;;;;;;69.30;53.93;;;18.00;99.90;;;;;;5084236;28;20311;-40
2021/09/18 08:38:04;;;;;;;64.90;48.40;;;18.00;99.90;;;;;;5084715;28;20184;-39
2021/09/18 08:40:35;;;;;;;70.70;50.60;;;18.10;99.90;;;;;;5087910;28;20192;-40
2021/09/18 08:43:01;;;;;;;64.83;51.13;;;18.10;99.90;;;;;;5089136;28;21680;-39
2021/09/18 08:45:27;;;;;;;60.73;49.03;;;18.10;99.90;;;;;;5088811;28;20727;-42
2021/09/18 08:47:53;;;;;;;57.53;46.13;;;18.30;99.90;;;;;;5089008;28;20192;-42
2021/09/18 08:50:23;;;;;;;59.83;47.77;;;18.20;99.90;;;;;;5086071;28;20199;-41
2021/09/18 08:52:49;;;;;;;56.10;44.70;;;18.30;99.90;;;;;;5079279;28;20469;-39
2021/09/18 08:55:16;;;;;;;54.97;45.73;;;18.30;99.90;;;;;;5088184;28;20418;-43
2021/09/18 08:57:42;;;;;;;50.20;40.90;;;18.40;99.90;;;;;;5089125;28;20534;-39
2021/09/18 09:00:29;;;;;;;56.20;45.00;;;18.50;99.90;;;;;;5087672;28;20418;-44
2021/09/18 09:02:55;;;;;;;46.13;39.20;;;18.60;99.90;;;;;;5088519;28;20457;-44
2021/09/18 09:05:27;;;;;;;51.97;42.60;;;18.60;99.90;;;;;;5086511;28;20433;-39
2021/09/18 09:08:05;;;;;;;47.50;40.10;;;18.80;99.90;;;;;;5080699;28;20752;-42
2021/09/18 09:10:31;;;;;;;47.17;39.30;;;18.80;99.90;;;;;;5087576;28;20449;-39
2021/09/18 09:13:08;;;;;;;51.63;40.30;;;18.90;99.90;;;;;;5088347;28;20480;-43
2021/09/18 09:15:35;;;;;;;45.50;38.00;;;18.90;99.90;;;;;;5088127;28;20650;-42
2021/09/18 09:18:14;;;;;;;48.53;39.67;;;19.00;99.90;;;;;;5088589;28;20417;-44
2021/09/18 09:20:39;;;;;;;51.03;40.70;;;19.10;99.90;;;;;;5084823;28;20433;-39
2021/09/18 09:23:20;;;;;;;44.77;37.77;;;19.20;99.90;;;;;;5080348;28;20781;-41
2021/09/18 09:25:53;;;;;;;44.37;34.53;;;19.20;99.90;;;;;;5087815;28;20180;-39
2021/09/18 09:28:31;;;;;;;41.40;34.20;;;19.30;99.90;;;;;;5088133;28;20437;-44
2021/09/18 09:31:25;;;;;;;43.70;34.73;;;19.30;99.90;;;;;;5087121;28;20900;-40
2021/09/18 09:34:15;;;;;;;47.43;38.83;;;19.30;99.90;;;;;;5088036;28;20426;-40
2021/09/18 09:36:45;;;;;;;49.67;39.57;;;19.50;99.90;;;;;;5079006;28;20973;-40
2021/09/18 09:39:14;;;;;;;45.00;35.43;;;19.50;99.90;;;;;;5084655;28;20708;-40
2021/09/18 09:41:48;;;;;;;42.37;36.77;;;19.70;99.90;;;;;;5088006;28;20438;-41
2021/09/18 09:44:18;;;;;;;41.50;34.97;;;19.80;99.90;;;;;;5088132;28;20511;-39
2021/09/18 09:47:01;;;;;;;41.37;34.43;;;19.90;99.90;;;;;;5088051;28;20507;-41
2021/09/18 09:49:41;;;;;;;41.43;34.90;;;19.90;99.90;;;;;;5086931;28;20422;-40
2021/09/18 09:52:25;;;;;;;43.10;33.13;;;20.00;99.90;;;;;;5077115;28;20614;-45
2021/09/18 09:54:54;;;;;;;37.77;32.47;;;20.10;99.90;;;;;;5086584;28;20426;-39
2021/09/18 09:57:22;;;;;;;37.60;33.27;;;20.20;99.90;;;;;;5087737;28;20418;-44
2021/09/18 09:59:48;;;;;;;37.83;31.90;;;20.20;99.90;;;;;;5087232;28;20498;-41
2021/09/18 10:02:14;;;;;;;37.10;30.60;;;20.10;99.90;;;;;;5087516;28;20438;-41
2021/09/18 10:04:40;;;;;;;32.17;27.73;;;20.20;99.90;;;;;;5087674;28;20529;-40
2021/09/18 10:07:08;;;;;;;22.63;20.23;;;20.10;99.90;;;;;;5077202;28;20866;-46
2021/09/18 10:09:36;;;;;;;28.57;25.30;;;20.00;99.90;;;;;;5082751;28;20811;-39
2021/09/18 10:12:03;;;;;;;29.43;24.93;;;20.00;99.90;;;;;;5083435;28;20960;-40
2021/09/18 10:14:31;;;;;;;37.50;32.57;;;20.00;99.90;;;;;;5085246;28;20479;-40
2021/09/18 10:16:58;;;;;;;35.97;30.03;;;20.10;99.90;;;;;;5075579;28;20449;-42
2021/09/18 10:19:53;;;;;;;34.30;28.30;;;20.20;99.90;;;;;;5085975;28;20432;-40
2021/09/18 10:25:28;;;;;;;37.60;31.43;;;20.30;99.90;;;;;;5083850;28;20569;-41
2021/09/18 10:28:09;;;;;;;29.27;26.07;;;20.40;99.90;;;;;;5085129;28;20965;-44
2021/09/18 10:30:37;;;;;;;28.77;23.63;;;20.40;99.90;;;;;;5086234;28;20430;-43
2021/09/18 10:33:03;;;;;;;27.83;24.50;;;20.30;99.90;;;;;;5074619;28;20446;-43
2021/09/18 10:35:31;;;;;;;24.13;21.07;;;20.20;99.90;;;;;;5082176;28;20517;-45
2021/09/18 10:37:57;;;;;;;29.03;25.20;;;20.20;99.90;;;;;;5077436;28;20436;-42
2021/09/18 10:40:23;;;;;;;25.07;20.23;;;20.20;99.90;;;;;;5084378;28;20414;-41
2021/09/18 10:42:50;;;;;;;30.73;25.63;;;20.30;99.90;;;;;;5085137;28;20959;-43
2021/09/18 10:45:18;;;;;;;30.53;25.30;;;20.40;99.90;;;;;;5086655;28;20202;-40
2021/09/18 10:47:48;;;;;;;27.57;24.67;;;20.40;99.90;;;;;;5071570;28;20433;-40
2021/09/18 10:50:24;;;;;;;24.57;21.97;;;20.50;99.90;;;;;;5086240;28;20791;-41
2021/09/18 10:53:10;;;;;;;29.20;23.60;;;20.40;99.90;;;;;;5070300;28;20557;-47
2021/09/18 10:56:01;;;;;;;25.37;22.67;;;20.50;99.90;;;;;;5053488;28;20442;-45
2021/09/18 10:58:27;;;;;;;26.20;22.10;;;20.50;99.90;;;;;;5077817;28;20423;-42
2021/09/18 11:00:59;;;;;;;22.13;19.50;;;20.70;99.90;;;;;;5085473;28;20960;-43
2021/09/18 11:03:40;;;;;;;19.53;17.47;;;20.80;99.90;;;;;;5086597;28;20426;-41
2021/09/18 11:06:07;;;;;;;23.37;20.97;;;20.90;99.90;;;;;;5086435;28;20440;-40
2021/09/18 11:08:35;;;;;;;22.07;19.77;;;21.00;99.90;;;;;;5076785;28;20450;-41
2021/09/18 11:11:12;;;;;;;25.40;22.80;;;21.10;99.90;;;;;;5072470;28;21028;-44
2021/09/18 11:13:40;;;;;;;24.47;20.70;;;21.20;99.90;;;;;;5082517;28;20556;-44
2021/09/18 11:16:27;;;;;;;27.97;21.53;;;21.20;99.90;;;;;;5084713;28;20441;-41
2021/09/18 11:19:10;;;;;;;22.93;20.50;;;21.30;99.90;;;;;;5085007;28;20913;-41
2021/09/18 11:21:40;;;;;;;20.63;18.53;;;21.40;99.90;;;;;;5083639;28;20430;-40
2021/09/18 11:24:15;;;;;;;21.43;19.17;;;21.50;99.90;;;;;;5079466;28;20913;-40
2021/09/18 11:26:59;;;;;;;25.17;22.57;;;21.50;99.90;;;;;;5085817;28;20425;-41
2021/09/18 11:29:33;;;;;;;24.40;21.40;;;21.60;99.90;;;;;;5084200;28;20469;-40
2021/09/18 11:32:10;;;;;;;23.97;21.47;;;21.60;99.90;;;;;;5083801;28;20499;-40
2021/09/18 11:34:50;;;;;;;20.17;18.27;;;21.60;99.90;;;;;;5083651;28;20425;-42
2021/09/18 11:37:35;;;;;;;23.70;21.20;;;21.50;99.90;;;;;;5079754;28;20442;-39
2021/09/18 11:40:06;;;;;;;18.83;17.00;;;21.60;99.90;;;;;;5076964;28;20433;-45
2021/09/18 11:42:39;;;;;;;20.50;18.50;;;21.60;99.90;;;;;;5085731;28;20869;-40
2021/09/18 11:45:13;;;;;;;21.43;19.33;;;21.60;99.90;;;;;;5085663;28;20473;-42
2021/09/18 11:47:42;;;;;;;22.33;18.60;;;21.60;99.90;;;;;;5072654;28;20430;-45
2021/09/18 11:50:38;;;;;;;15.93;14.23;;;21.60;99.90;;;;;;5084764;28;20425;-40
2021/09/18 11:53:09;;;;;;;16.93;15.13;;;21.60;99.90;;;;;;5073518;28;20443;-40
2021/09/18 11:55:45;;;;;;;16.70;15.10;;;21.60;99.90;;;;;;5084516;28;20411;-41
2021/09/18 11:58:23;;;;;;;15.60;14.07;;;21.60;99.90;;;;;;5085393;28;20438;-41
2021/09/18 12:00:55;;;;;;;19.40;17.67;;;21.60;99.90;;;;;;5084534;28;20418;-46
2021/09/18 12:03:28;;;;;;;18.50;16.70;;;21.80;99.90;;;;;;5085310;28;20541;-42
2021/09/18 12:06:05;;;;;;;21.50;19.30;;;21.80;99.90;;;;;;5084671;28;20433;-44
2021/09/18 12:08:33;;;;;;;20.93;18.80;;;21.80;99.90;;;;;;5080072;28;20835;-39
2021/09/18 12:11:09;;;;;;;18.60;16.70;;;21.90;99.90;;;;;;5079920;28;20457;-41
2021/09/18 12:13:40;;;;;;;20.67;18.67;;;21.90;99.90;;;;;;5080436;28;21011;-44
2021/09/18 12:16:07;;;;;;;20.13;18.27;;;21.80;99.90;;;;;;5079575;28;20459;-39
2021/09/18 12:18:38;;;;;;;19.93;18.00;;;21.70;99.90;;;;;;5082269;28;20482;-39
2021/09/18 12:21:25;;;;;;;20.57;18.53;;;21.60;99.90;;;;;;5077744;28;20430;-41
2021/09/18 12:23:57;;;;;;;20.97;18.87;;;21.50;99.90;;;;;;5074104;28;20439;-42
2021/09/18 12:26:25;;;;;;;22.13;20.03;;;21.40;99.90;;;;;;5085361;28;20829;-41
2021/09/18 12:29:06;;;;;;;21.37;19.33;;;21.30;99.90;;;;;;5084064;28;20877;-40
2021/09/18 12:31:32;;;;;;;18.33;16.67;;;21.20;99.90;;;;;;5081506;28;20489;-40
2021/09/18 12:34:08;;;;;;;18.13;16.33;;;21.30;99.90;;;;;;5084032;28;20414;-42
2021/09/18 12:36:34;;;;;;;19.87;17.93;;;21.30;99.90;;;;;;5078260;28;20847;-40